Time;durP1;ratioP1;P1;durP2;ratioP2;P2;SDS_P1;SDS_P2;PMS_P1;PMS_P2;Temp;Humidity;BMP_temperature;BMP_pressure;BME280_temperature;BME280_humidity;BME280_pressure;Samples;Min_cycle;Max_cycle;Signal;HPM_P1;HPM_P2
2023/01/24 00:00:53;;;;;;;0.82;0.82;;;;;;;10.20;57.35;101186.25;4378961;32;34572;-82
2023/01/24 00:03:21;;;;;;;1.52;1.42;;;;;;;10.16;57.53;101184.56;4376873;32;32560;-82
2023/01/24 00:05:48;;;;;;;1.12;0.90;;;;;;;10.11;57.74;101182.03;4370167;32;34038;-82
2023/01/24 00:08:22;;;;;;;1.12;0.40;;;;;;;10.28;57.32;101189.63;4362161;32;33167;-83
2023/01/24 00:11:02;;;;;;;3.35;1.17;;;;;;;10.17;57.49;101187.19;4373246;32;33703;-83
2023/01/24 00:13:29;;;;;;;1.73;1.62;;;;;;;10.01;57.81;101181.31;4349642;32;33302;-83
2023/01/24 00:16:06;;;;;;;0.88;0.85;;;;;;;10.06;57.70;101190.91;4361870;32;34148;-83
2023/01/24 00:18:34;;;;;;;0.95;0.90;;;;;;;10.20;57.28;101187.09;4362157;32;33511;-83
2023/01/24 00:21:05;;;;;;;1.17;1.08;;;;;;;10.16;57.17;101184.56;4362435;32;33623;-84
2023/01/24 00:23:32;;;;;;;2.55;2.42;;;;;;;9.88;57.78;101185.13;4362163;32;33081;-84
2023/01/24 00:26:00;;;;;;;0.98;0.98;;;;;;;9.92;57.72;101189.44;4375865;32;35009;-83
2023/01/24 00:28:27;;;;;;;0.62;0.62;;;;;;;9.82;57.93;101190.47;4362217;32;34390;-84
2023/01/24 00:30:55;;;;;;;1.65;0.80;;;;;;;9.78;57.98;101193.19;4361861;32;32648;-83
2023/01/24 00:33:24;;;;;;;0.62;0.62;;;;;;;9.79;57.82;101187.06;4350732;32;33879;-83
2023/01/24 00:35:52;;;;;;;2.08;1.25;;;;;;;9.73;57.54;101188.91;4348834;32;33366;-84
2023/01/24 00:38:20;;;;;;;1.55;1.45;;;;;;;9.85;56.89;101190.44;4349808;32;32786;-84
2023/01/24 00:40:49;;;;;;;0.80;0.80;;;;;;;9.77;57.11;101197.62;4361288;32;34035;-84
2023/01/24 00:43:17;;;;;;;0.90;0.90;;;;;;;9.58;57.40;101197.06;4353912;32;34386;-84
2023/01/24 00:45:45;;;;;;;0.57;0.57;;;;;;;9.79;56.89;101200.25;4361223;32;33206;-85
2023/01/24 00:48:14;;;;;;;0.47;0.47;;;;;;;9.29;58.20;101205.47;4348575;32;33498;-84
2023/01/24 00:50:42;;;;;;;0.73;0.73;;;;;;;9.50;57.89;101206.91;4349337;32;32993;-85
2023/01/24 00:53:09;;;;;;;4.30;1.02;;;;;;;9.66;57.21;101199.59;4349808;32;33250;-84
2023/01/24 00:55:45;;;;;;;3.92;1.00;;;;;;;9.51;57.77;101200.72;4349320;32;32944;-84
2023/01/24 00:58:13;;;;;;;1.65;1.42;;;;;;;9.46;57.85;101211.34;4361046;32;33630;-84
2023/01/24 01:00:41;;;;;;;0.90;0.88;;;;;;;9.62;57.22;101205.81;4361971;32;34454;-84
2023/01/24 01:03:14;;;;;;;4.00;1.08;;;;;;;9.71;57.04;101206.50;4361910;32;34028;-83
2023/01/24 01:05:42;;;;;;;1.17;1.08;;;;;;;9.53;57.51;101214.75;4362698;32;33078;-83
2023/01/24 01:08:10;;;;;;;0.00;0.00;;;;;;;9.33;58.14;101217.72;4383280;32;32439;-83
2023/01/24 01:10:38;;;;;;;0.37;0.35;;;;;;;9.16;58.26;101225.00;4366353;32;33156;-83
2023/01/24 01:13:06;;;;;;;2.22;1.10;;;;;;;9.34;57.72;101223.84;4378069;32;33600;-84
2023/01/24 01:15:33;;;;;;;0.22;0.22;;;;;;;9.41;57.61;101214.97;4365833;32;34555;-83
2023/01/24 01:18:02;;;;;;;0.93;0.90;;;;;;;8.93;58.75;101231.50;4386603;32;32646;-83
2023/01/24 01:20:30;;;;;;;1.17;0.95;;;;;;;9.02;58.76;101232.22;4365497;32;32531;-83
2023/01/24 01:22:58;;;;;;;0.70;0.70;;;;;;;8.98;58.53;101229.66;4366572;32;34363;-83
2023/01/24 01:25:26;;;;;;;0.57;0.57;;;;;;;9.27;57.78;101233.63;4378776;32;34023;-84
2023/01/24 01:27:54;;;;;;;1.35;0.70;;;;;;;8.97;58.44;101230.56;4378917;32;34067;-83
2023/01/24 01:30:22;;;;;;;3.17;1.17;;;;;;;8.90;58.79;101228.88;4373671;32;33511;-84
2023/01/24 01:32:50;;;;;;;0.52;0.52;;;;;;;9.22;57.60;101233.69;4377995;32;33601;-83
2023/01/24 01:35:18;;;;;;;2.17;1.20;;;;;;;9.19;57.53;101224.97;4383205;32;33656;-83
2023/01/24 01:37:46;;;;;;;1.02;0.93;;;;;;;9.12;57.76;101226.81;4378401;32;33223;-83
2023/01/24 01:40:13;;;;;;;0.10;0.10;;;;;;;9.00;58.00;101229.63;4385816;32;33955;-83
2023/01/24 01:42:53;;;;;;;0.37;0.37;;;;;;;8.85;58.33;101237.75;4378845;32;33598;-83
2023/01/24 01:45:43;;;;;;;1.40;1.35;;;;;;;8.46;59.37;101240.00;4368725;32;33024;-83
2023/01/24 01:48:39;;;;;;;5.15;1.65;;;;;;;9.11;57.54;101237.37;4381819;32;32432;-83
2023/01/24 01:51:25;;;;;;;0.75;0.75;;;;;;;9.07;57.36;101240.94;4366605;32;33188;-83
2023/01/24 01:54:10;;;;;;;0.50;0.50;;;;;;;8.83;57.83;101247.41;4386770;32;34023;-82
2023/01/24 01:56:41;;;;;;;0.50;0.50;;;;;;;9.05;57.18;101248.88;4378068;32;34081;-83
2023/01/24 01:59:13;;;;;;;0.75;0.75;;;;;;;9.03;57.07;101255.94;4382739;32;33936;-85
2023/01/24 02:01:42;;;;;;;3.08;1.77;;;;;;;8.94;56.97;101248.16;4392652;32;34674;-84
2023/01/24 02:04:29;;;;;;;0.37;0.37;;;;;;;8.67;57.33;101252.03;4377783;32;33893;-84
2023/01/24 02:07:02;;;;;;;0.35;0.32;;;;;;;8.69;57.47;101242.38;4374258;32;34773;-84
2023/01/24 02:09:37;;;;;;;0.32;0.20;;;;;;;8.47;57.71;101254.91;4370295;32;33813;-84
2023/01/24 02:12:12;;;;;;;0.25;0.25;;;;;;;8.70;56.99;101252.00;4363979;32;33657;-83
2023/01/24 02:17:26;;;;;;;2.30;2.08;;;;;;;8.37;57.69;101256.78;4374928;32;34070;-83
2023/01/24 02:20:09;;;;;;;0.60;0.60;;;;;;;8.51;57.46;101261.03;4354658;32;32928;-83
2023/01/24 02:22:49;;;;;;;;;;;;;;;8.77;56.55;101255.41;4367604;32;32841;-84
2023/01/24 02:25:26;;;;;;;2.53;0.57;;;;;;;8.27;57.84;101267.41;4368875;32;33961;-83
2023/01/24 02:27:55;;;;;;;0.28;0.28;;;;;;;8.42;57.35;101267.25;4363388;32;34786;-83
2023/01/24 02:30:22;;;;;;;0.77;0.77;;;;;;;8.07;58.12;101257.97;4349039;32;33185;-83
2023/01/24 02:32:50;;;;;;;0.82;0.82;;;;;;;7.70;59.30;101268.81;4343440;32;33356;-84
2023/01/24 02:35:24;;;;;;;0.05;0.05;;;;;;;8.12;58.21;101268.44;4357473;32;32445;-83
2023/01/24 02:37:53;;;;;;;0.50;0.50;;;;;;;7.98;58.61;101255.41;4381216;32;33033;-83
2023/01/24 02:40:21;;;;;;;0.20;0.20;;;;;;;8.07;58.43;101264.94;4356939;32;33544;-82
2023/01/24 02:42:49;;;;;;;0.85;0.37;;;;;;;8.14;58.13;101261.38;4357904;32;33563;-82
2023/01/24 02:45:25;;;;;;;1.48;1.37;;;;;;;8.39;57.48;101268.16;4369453;32;32385;-82
2023/01/24 02:47:54;;;;;;;2.03;0.73;;;;;;;8.35;57.25;101263.78;4383248;32;34003;-83
2023/01/24 02:50:26;;;;;;;0.77;0.62;;;;;;;8.26;57.66;101263.91;4345989;32;32500;-84
2023/01/24 02:58:51;;;;;;;1.17;1.08;;;;;;;8.24;58.27;101268.28;4332515;33;34611;-83
2023/01/24 03:01:21;;;;;;;0.05;0.05;;;;;;;8.38;57.33;101282.19;4355458;32;33517;-83
2023/01/24 03:03:50;;;;;;;1.30;1.23;;;;;;;8.32;57.52;101279.62;4369499;32;33878;-84
2023/01/24 03:06:18;;;;;;;0.52;0.52;;;;;;;8.32;57.64;101276.97;4347364;32;33869;-84
2023/01/24 03:08:46;;;;;;;4.53;1.00;;;;;;;8.14;58.05;101277.16;4378249;32;34775;-83
2023/01/24 03:11:14;;;;;;;0.73;0.57;;;;;;;8.46;57.06;101284.75;4378361;32;33319;-83
2023/01/24 03:35:58;;;;;;;0.32;0.32;;;;;;;8.49;56.56;101292.59;4380181;32;33939;-83
2023/01/24 03:41:12;;;;;;;0.10;0.10;;;;;;;8.95;55.10;101285.03;4391417;32;34180;-82
2023/01/24 03:43:40;;;;;;;0.15;0.15;;;;;;;8.90;54.90;101289.47;4384136;32;33338;-82
2023/01/24 03:46:09;;;;;;;1.85;1.50;;;;;;;8.60;55.99;101297.78;4360779;32;33471;-83
2023/01/24 03:48:37;;;;;;;1.37;1.27;;;;;;;8.60;56.04;101295.13;4376324;32;34023;-84
2023/01/24 03:53:51;;;;;;;0.98;0.98;;;;;;;8.73;55.65;101294.06;4391059;32;34353;-83
2023/01/24 03:56:21;;;;;;;0.65;0.65;;;;;;;8.55;55.90;101289.94;4376497;32;33365;-83
2023/01/24 03:58:49;;;;;;;7.72;1.48;;;;;;;8.81;55.32;101281.69;4365244;32;33052;-83
2023/01/24 04:01:17;;;;;;;0.00;0.00;;;;;;;8.58;55.46;101289.00;4372840;32;32341;-83
2023/01/24 04:03:46;;;;;;;0.75;0.43;;;;;;;8.74;55.27;101290.56;4365442;32;32958;-82
2023/01/24 04:06:13;;;;;;;0.45;0.45;;;;;;;8.89;55.02;101286.88;4378227;32;32401;-83
2023/01/24 04:08:41;;;;;;;0.43;0.43;;;;;;;8.95;55.06;101295.56;4361829;32;34029;-83
2023/01/24 04:11:09;;;;;;;0.20;0.20;;;;;;;9.10;54.32;101286.56;4392677;32;33096;-85
2023/01/24 04:13:36;;;;;;;1.25;1.25;;;;;;;9.00;54.67;101290.22;4374664;32;34437;-85
2023/01/24 04:16:06;;;;;;;3.65;1.75;;;;;;;9.00;54.67;101297.25;4362752;32;32300;-85
2023/01/24 04:18:36;;;;;;;0.77;0.37;;;;;;;8.80;54.96;101298.37;4374012;32;34714;-84
2023/01/24 04:21:04;;;;;;;0.00;0.00;;;;;;;9.17;54.28;101296.16;4374273;32;33326;-85
2023/01/24 04:23:31;;;;;;;0.05;0.03;;;;;;;8.94;55.05;101298.22;4370343;32;32661;-83
2023/01/24 04:26:00;;;;;;;6.72;0.85;;;;;;;9.05;55.09;101295.44;4368619;32;32565;-83
2023/01/24 04:28:30;;;;;;;0.37;0.37;;;;;;;9.06;55.13;101297.16;4350420;32;32871;-82
2023/01/24 04:31:01;;;;;;;0.10;0.10;;;;;;;9.01;55.44;101296.38;4373007;32;34663;-82
2023/01/24 04:33:31;;;;;;;1.08;0.93;;;;;;;8.79;56.74;101290.53;4361528;32;33488;-82
2023/01/24 04:35:59;;;;;;;0.20;0.20;;;;;;;8.85;56.54;101288.66;4378368;32;33904;-82
2023/01/24 04:38:27;;;;;;;2.17;0.82;;;;;;;8.83;56.78;101292.19;4349674;32;33843;-84
2023/01/24 04:40:58;;;;;;;0.75;0.75;;;;;;;9.01;55.92;101299.88;4382701;32;34891;-84
2023/01/24 04:43:26;;;;;;;0.52;0.20;;;;;;;8.81;56.65;101292.22;4376568;32;33635;-84
2023/01/24 04:45:58;;;;;;;0.95;0.77;;;;;;;8.83;56.83;101301.00;4363884;32;32520;-84
2023/01/24 04:48:28;;;;;;;1.25;0.52;;;;;;;8.85;56.95;101299.19;4368565;32;33376;-83
2023/01/24 04:50:59;;;;;;;0.62;0.62;;;;;;;8.82;57.06;101299.22;4377693;32;34752;-83
2023/01/24 04:53:28;;;;;;;;;;;;;;;8.91;57.01;101307.03;4364309;32;33301;-84
2023/01/24 04:56:03;;;;;;;0.37;0.37;;;;;;;8.91;57.07;101309.66;4364385;32;33889;-84
2023/01/24 04:58:32;;;;;;;0.28;0.28;;;;;;;8.86;57.34;101308.84;4376701;32;32730;-84
2023/01/24 05:01:01;;;;;;;0.37;0.35;;;;;;;8.83;57.43;101306.28;4368191;32;33961;-84
2023/01/24 05:03:33;;;;;;;0.10;0.10;;;;;;;8.80;57.54;101310.69;4364743;32;34208;-83
2023/01/24 05:06:00;;;;;;;0.37;0.37;;;;;;;8.84;57.44;101313.28;4376800;32;34175;-83
2023/01/24 05:08:28;;;;;;;1.60;1.50;;;;;;;8.87;57.30;101307.94;4396326;32;33872;-83
2023/01/24 05:11:04;;;;;;;0.52;0.52;;;;;;;8.83;57.34;101316.81;4382955;32;33088;-83
2023/01/24 05:13:32;;;;;;;0.55;0.55;;;;;;;8.80;57.58;101315.97;4392143;32;33408;-84
2023/01/24 05:15:59;;;;;;;1.15;0.55;;;;;;;8.65;57.75;101322.28;4370303;32;32761;-83
2023/01/24 05:18:27;;;;;;;0.00;0.00;;;;;;;8.57;58.32;101314.47;4372065;32;33935;-84
2023/01/24 05:20:55;;;;;;;0.65;0.65;;;;;;;8.67;58.14;101317.84;4375331;32;33363;-84
2023/01/24 05:23:24;;;;;;;2.03;1.60;;;;;;;8.66;58.19;101319.62;4369801;32;33589;-83
2023/01/24 05:25:51;;;;;;;0.37;0.37;;;;;;;8.67;58.15;101321.34;4376206;32;34663;-84
2023/01/24 05:28:19;;;;;;;1.23;1.12;;;;;;;8.66;58.13;101329.28;4389012;32;33844;-84
2023/01/24 05:30:47;;;;;;;2.40;2.00;;;;;;;8.61;58.33;101325.84;4369234;32;33240;-83
2023/01/24 05:33:16;;;;;;;0.93;0.93;;;;;;;8.58;58.56;101325.88;4369763;32;32574;-83
2023/01/24 05:35:44;;;;;;;0.17;0.17;;;;;;;8.57;58.66;101329.38;4369893;32;32736;-84
2023/01/24 05:38:12;;;;;;;1.52;1.02;;;;;;;8.63;58.50;101324.91;4369598;32;33817;-83
2023/01/24 05:40:40;;;;;;;3.20;1.65;;;;;;;8.55;58.33;101324.16;4378580;32;33404;-84
2023/01/24 05:43:07;;;;;;;0.88;0.88;;;;;;;8.52;58.71;101321.53;4370404;32;34308;-83
2023/01/24 05:45:35;;;;;;;2.20;2.05;;;;;;;8.53;58.73;101327.69;4378656;32;33083;-83
2023/01/24 05:48:04;;;;;;;0.90;0.80;;;;;;;8.38;59.25;101326.94;4388711;32;35128;-83
2023/01/24 05:50:32;;;;;;;0.60;0.60;;;;;;;8.30;59.55;101334.00;4358096;32;33423;-84
2023/01/24 05:53:08;;;;;;;0.85;0.82;;;;;;;8.34;59.50;101333.09;4377742;32;32425;-84
2023/01/24 05:55:36;;;;;;;9.70;2.60;;;;;;;8.32;59.58;101340.16;4367539;32;33663;-83
2023/01/24 05:58:03;;;;;;;0.43;0.43;;;;;;;8.38;59.43;101332.22;4375172;32;32703;-85
2023/01/24 06:00:31;;;;;;;1.75;1.48;;;;;;;8.38;59.31;101323.44;4365480;32;32744;-84
2023/01/24 06:03:04;;;;;;;0.88;0.75;;;;;;;8.37;59.21;101337.50;4388692;32;32668;-85
2023/01/24 06:05:31;;;;;;;0.55;0.55;;;;;;;8.25;59.55;101338.44;4377089;32;33067;-84
2023/01/24 06:07:59;;;;;;;0.57;0.57;;;;;;;8.32;59.33;101342.78;4374179;32;33881;-84
2023/01/24 06:10:27;;;;;;;0.43;0.40;;;;;;;8.29;59.44;101345.44;4372564;32;33513;-85
2023/01/24 06:12:59;;;;;;;0.43;0.43;;;;;;;8.25;59.37;101342.84;4361297;32;33575;-84
2023/01/24 06:15:27;;;;;;;1.98;1.83;;;;;;;8.15;59.83;101344.69;4372780;32;32388;-85
2023/01/24 06:17:55;;;;;;;0.40;0.40;;;;;;;8.17;59.82;101348.19;4358655;32;32915;-84
2023/01/24 06:20:23;;;;;;;0.37;0.37;;;;;;;8.20;59.72;101356.91;4371552;32;33514;-84
2023/01/24 06:22:56;;;;;;;0.50;0.50;;;;;;;8.13;59.70;101351.72;4348018;32;33857;-84
2023/01/24 06:25:25;;;;;;;0.70;0.70;;;;;;;8.18;59.65;101358.69;4382596;32;32767;-84
2023/01/24 06:27:53;;;;;;;3.00;1.30;;;;;;;8.21;59.50;101363.94;4375282;32;33274;-85
2023/01/24 06:30:21;;;;;;;0.47;0.47;;;;;;;8.20;59.37;101353.41;4346882;32;32745;-83
2023/01/24 06:33:14;;;;;;;0.60;0.60;;;;;;;8.18;59.52;101369.22;4359726;32;31483;-83
2023/01/24 06:36:03;;;;;;;1.02;1.02;;;;;;;8.06;59.75;101368.44;4362890;32;33035;-83
2023/01/24 06:38:31;;;;;;;0.25;0.25;;;;;;;8.13;59.64;101364.88;4362601;32;33614;-83
2023/01/24 06:41:01;;;;;;;1.42;0.70;;;;;;;8.04;59.99;101365.84;4363064;32;33776;-83
2023/01/24 06:43:29;;;;;;;0.82;0.62;;;;;;;7.98;59.87;101367.66;4363495;32;33666;-83
2023/01/24 06:45:56;;;;;;;1.10;1.02;;;;;;;8.01;60.17;101364.97;4374806;32;32568;-82
2023/01/24 06:48:24;;;;;;;0.30;0.30;;;;;;;8.04;60.35;101370.22;4363399;32;33458;-83
2023/01/24 06:50:52;;;;;;;1.95;1.85;;;;;;;7.98;60.24;101371.16;4374721;32;34054;-83
2023/01/24 06:53:19;;;;;;;2.92;2.08;;;;;;;8.03;60.36;101369.34;4375527;32;33606;-83
2023/01/24 06:55:47;;;;;;;1.67;1.58;;;;;;;8.00;60.40;101379.03;4350922;32;32516;-83
2023/01/24 06:58:15;;;;;;;0.82;0.80;;;;;;;8.01;60.59;101375.50;4375100;32;34671;-83
2023/01/24 07:00:42;;;;;;;1.40;1.27;;;;;;;8.06;60.82;101386.84;4350999;32;33549;-82
2023/01/24 07:03:10;;;;;;;1.30;0.98;;;;;;;8.07;60.67;101376.34;4362458;32;32651;-83
2023/01/24 07:05:38;;;;;;;1.27;0.70;;;;;;;8.20;60.53;101377.09;4350888;32;32860;-83
2023/01/24 07:08:06;;;;;;;1.12;1.08;;;;;;;8.29;60.24;101377.00;4390175;32;33573;-83
2023/01/24 07:10:34;;;;;;;0.85;0.85;;;;;;;8.14;60.66;101383.28;4382394;32;33529;-82
2023/01/24 07:13:02;;;;;;;1.45;1.05;;;;;;;8.30;60.59;101383.13;4384765;32;33165;-83
2023/01/24 07:15:30;;;;;;;2.62;2.33;;;;;;;8.32;60.59;101387.53;4366237;32;33611;-83
2023/01/24 07:18:05;;;;;;;1.15;1.15;;;;;;;8.43;60.21;101385.69;4365830;32;33597;-83
2023/01/24 07:20:32;;;;;;;3.12;0.75;;;;;;;8.41;60.49;101390.09;4391367;32;34053;-83
2023/01/24 07:23:00;;;;;;;1.10;1.10;;;;;;;8.49;59.92;101383.88;4378062;32;33811;-83
2023/01/24 07:25:28;;;;;;;7.07;0.98;;;;;;;8.70;59.37;101381.03;4375309;32;33778;-83
2023/01/24 07:27:56;;;;;;;0.50;0.37;;;;;;;8.79;58.53;101383.56;4382183;32;33409;-83
2023/01/24 07:30:24;;;;;;;0.65;0.65;;;;;;;8.90;57.55;101386.94;4377046;32;32752;-83
2023/01/24 07:32:53;;;;;;;1.12;0.80;;;;;;;8.72;58.32;101382.75;4366071;32;33361;-83
2023/01/24 07:35:21;;;;;;;2.85;2.40;;;;;;;9.07;57.89;101388.50;4388821;32;33004;-83
2023/01/24 07:37:49;;;;;;;0.90;0.90;;;;;;;8.94;58.61;101396.56;4388346;32;34190;-83
2023/01/24 07:40:16;;;;;;;0.47;0.47;;;;;;;9.30;57.38;101396.13;4361066;32;33618;-83
2023/01/24 07:42:44;;;;;;;1.65;1.20;;;;;;;9.18;57.75;101395.41;4367047;32;32099;-83
2023/01/24 07:45:12;;;;;;;2.37;1.80;;;;;;;9.04;57.87;101396.47;4374770;32;32806;-82
2023/01/24 07:47:39;;;;;;;0.62;0.62;;;;;;;9.05;58.10;101395.56;4361667;32;33307;-82
2023/01/24 07:50:07;;;;;;;0.90;0.90;;;;;;;9.45;57.09;101402.09;4375230;32;33490;-82
2023/01/24 07:52:35;;;;;;;1.42;1.33;;;;;;;9.53;56.62;101403.72;4390040;32;33110;-83
2023/01/24 07:55:03;;;;;;;0.88;0.88;;;;;;;9.61;55.86;101404.50;4379915;32;33623;-82
2023/01/24 07:57:30;;;;;;;3.67;1.15;;;;;;;9.46;56.75;101403.81;4392216;32;33196;-84
2023/01/24 07:59:58;;;;;;;0.55;0.55;;;;;;;9.44;57.06;101410.00;4373092;32;33272;-82
2023/01/24 08:02:26;;;;;;;2.58;2.37;;;;;;;9.35;56.95;101421.56;4376191;32;34497;-83
2023/01/24 08:04:53;;;;;;;1.67;1.55;;;;;;;9.44;56.87;101416.13;4387776;32;33492;-84
2023/01/24 08:07:21;;;;;;;1.08;1.08;;;;;;;9.48;56.82;101417.84;4378773;32;36215;-83
2023/01/24 08:09:49;;;;;;;1.60;1.08;;;;;;;9.39;57.24;101431.13;4375929;32;33081;-83
2023/01/24 08:12:20;;;;;;;1.40;1.30;;;;;;;9.46;57.18;101431.94;4366038;32;32889;-83
2023/01/24 08:14:48;;;;;;;1.48;1.37;;;;;;;9.58;56.99;101433.53;4376449;32;34517;-83
2023/01/24 08:17:16;;;;;;;1.75;1.15;;;;;;;9.79;56.41;101427.09;4368640;32;32945;-83
2023/01/24 08:19:44;;;;;;;3.20;1.67;;;;;;;10.07;55.29;101432.84;4355695;32;33109;-83
2023/01/24 08:22:24;;;;;;;4.40;1.40;;;;;;;9.90;56.47;101427.81;4378515;32;33847;-83
2023/01/24 08:24:52;;;;;;;0.88;0.88;;;;;;;10.01;55.72;101426.75;4378838;32;34152;-83
2023/01/24 08:27:20;;;;;;;1.08;1.08;;;;;;;9.88;56.61;101427.84;4377370;32;31259;-83
2023/01/24 08:29:47;;;;;;;0.95;0.73;;;;;;;9.93;56.24;101433.06;4390372;32;33603;-83
2023/01/24 08:32:15;;;;;;;8.20;1.90;;;;;;;10.04;56.40;101435.53;4371222;32;32235;-83
2023/01/24 08:34:42;;;;;;;1.27;1.17;;;;;;;10.22;55.52;101432.59;4378357;32;32860;-83
2023/01/24 08:37:10;;;;;;;2.75;1.70;;;;;;;10.70;54.87;101432.69;4386375;32;33899;-83
2023/01/24 08:39:38;;;;;;;1.95;1.85;;;;;;;10.46;54.80;101431.34;4379969;32;33689;-83
2023/01/24 08:42:06;;;;;;;2.45;1.00;;;;;;;10.13;55.59;101438.03;4361124;32;33375;-83
2023/01/24 08:44:34;;;;;;;3.15;1.83;;;;;;;10.59;55.08;101439.94;4379912;32;32045;-83
2023/01/24 08:47:02;;;;;;;2.25;1.87;;;;;;;10.82;54.65;101432.44;4380504;32;33078;-83
2023/01/24 08:49:29;;;;;;;2.08;1.77;;;;;;;10.80;54.61;101433.37;4378989;32;33407;-84
2023/01/24 08:52:00;;;;;;;2.40;0.93;;;;;;;11.09;53.16;101435.47;4386432;32;32309;-83
2023/01/24 08:54:28;;;;;;;0.80;0.80;;;;;;;10.93;53.58;101427.84;4380855;32;34346;-83
2023/01/24 08:56:56;;;;;;;1.17;0.90;;;;;;;11.17;51.96;101436.19;4391311;32;33970;-84
2023/01/24 08:59:23;;;;;;;1.20;1.10;;;;;;;11.08;52.31;101436.38;4371028;32;33908;-84
2023/01/24 09:01:51;;;;;;;3.10;2.80;;;;;;;11.01;52.46;101436.50;4372431;32;34067;-84
2023/01/24 09:04:19;;;;;;;0.98;0.98;;;;;;;10.94;53.00;101442.78;4393715;32;34276;-84
2023/01/24 09:06:51;;;;;;;2.15;2.05;;;;;;;10.93;53.49;101440.19;4372337;32;33500;-83
2023/01/24 09:09:19;;;;;;;1.70;0.57;;;;;;;11.38;51.92;101443.66;4383594;32;33960;-83
2023/01/24 09:11:46;;;;;;;0.77;0.77;;;;;;;11.25;52.51;101440.44;4386802;32;32189;-84
2023/01/24 09:14:14;;;;;;;4.53;0.90;;;;;;;11.46;52.16;101444.38;4370919;32;33869;-82
2023/01/24 09:16:42;;;;;;;8.07;1.52;;;;;;;11.40;51.90;101433.94;4385831;32;33083;-83
2023/01/24 09:19:11;;;;;;;0.88;0.88;;;;;;;11.54;52.03;101436.31;4384786;32;33039;-83
2023/01/24 09:21:39;;;;;;;0.20;0.20;;;;;;;11.67;51.45;101442.19;4389447;32;33342;-82
2023/01/24 09:24:07;;;;;;;1.85;1.70;;;;;;;11.87;50.05;101437.37;4359838;32;32821;-83
2023/01/24 09:26:34;;;;;;;0.75;0.75;;;;;;;11.82;50.08;101436.59;4372819;32;33550;-82
2023/01/24 09:29:02;;;;;;;0.70;0.28;;;;;;;11.77;50.01;101443.72;4370352;32;34052;-82
2023/01/24 09:31:32;;;;;;;0.80;0.80;;;;;;;11.71;50.66;101443.84;4379068;32;32397;-83
2023/01/24 09:33:59;;;;;;;0.70;0.70;;;;;;;11.59;50.40;101433.56;4392713;32;32878;-82
2023/01/24 09:36:29;;;;;;;0.77;0.73;;;;;;;11.67;49.56;101436.87;4383128;32;34444;-83
2023/01/24 09:38:57;;;;;;;1.48;1.37;;;;;;;11.49;50.88;101433.75;4385706;32;34326;-82
2023/01/24 09:41:36;;;;;;;1.90;0.95;;;;;;;11.54;50.76;101434.53;4375110;32;32299;-82
2023/01/24 09:44:15;;;;;;;0.75;0.73;;;;;;;11.59;51.38;101429.13;4384643;32;33563;-82
2023/01/24 09:46:48;;;;;;;2.20;1.50;;;;;;;11.57;51.69;101424.75;4391875;32;34672;-83
2023/01/24 09:49:30;;;;;;;2.67;1.02;;;;;;;11.56;51.74;101423.03;4379646;32;32927;-83
2023/01/24 09:51:58;;;;;;;4.60;1.65;;;;;;;11.46;52.21;101417.06;4396541;32;32996;-83
2023/01/24 09:54:33;;;;;;;1.75;1.25;;;;;;;11.52;52.94;101423.09;4377335;32;32670;-84
2023/01/24 09:57:01;;;;;;;3.55;3.35;;;;;;;11.77;51.82;101430.47;4377482;32;32004;-83
2023/01/24 09:59:36;;;;;;;0.70;0.65;;;;;;;11.71;51.69;101427.97;4359217;32;33022;-84
2023/01/24 10:02:21;;;;;;;1.00;0.98;;;;;;;11.70;52.29;101419.19;4363984;32;32502;-83
2023/01/24 10:04:49;;;;;;;1.15;1.05;;;;;;;11.82;52.06;101415.44;4353699;32;33010;-84
2023/01/24 10:07:22;;;;;;;2.95;2.53;;;;;;;11.87;52.06;101412.66;4367027;32;33681;-84
2023/01/24 10:10:18;;;;;;;3.35;2.65;;;;;;;11.95;51.83;101406.25;4387364;32;34193;-84
2023/01/24 10:13:09;;;;;;;0.65;0.65;;;;;;;12.05;51.28;101418.38;4368832;32;33037;-84
2023/01/24 10:15:43;;;;;;;3.00;2.72;;;;;;;11.78;52.77;101413.72;4379886;32;33171;-84
2023/01/24 10:18:20;;;;;;;3.25;2.22;;;;;;;11.79;51.61;101407.50;4389354;32;33903;-84
2023/01/24 10:21:32;;;;;;;1.95;1.85;;;;;;;12.04;51.37;101402.53;4377427;32;33459;-84
2023/01/24 10:24:04;;;;;;;5.93;1.90;;;;;;;12.24;50.76;101402.03;4345228;32;32567;-84
2023/01/24 10:26:35;;;;;;;;;;;;;;;12.21;50.72;101397.72;4369264;32;33860;-84
2023/01/24 10:29:15;;;;;;;1.35;1.25;;;;;;;12.32;51.09;101392.13;4369951;32;33781;-84
2023/01/24 10:31:58;;;;;;;1.25;1.25;;;;;;;12.15;50.14;101386.37;4380851;32;33224;-84
2023/01/24 10:34:42;;;;;;;18.25;2.53;;;;;;;12.29;49.85;101394.84;4390567;32;32826;-84
2023/01/24 10:37:25;;;;;;;2.30;2.10;;;;;;;12.35;49.95;101394.72;4377304;32;32940;-84
2023/01/24 10:39:53;;;;;;;;;;;;;;;12.19;49.59;101404.78;4357756;32;33089;-84
2023/01/24 10:42:28;;;;;;;1.75;0.95;;;;;;;12.13;49.69;101404.09;4366037;32;33669;-84
2023/01/24 10:45:00;;;;;;;1.90;1.80;;;;;;;12.05;49.96;101401.62;4382187;32;33245;-83
2023/01/24 10:47:48;;;;;;;4.32;2.10;;;;;;;12.36;48.63;101393.78;4369557;32;33745;-83
2023/01/24 10:50:17;;;;;;;1.75;1.65;;;;;;;12.64;47.76;101387.78;4383501;32;33439;-84
2023/01/24 10:52:48;;;;;;;2.20;1.15;;;;;;;12.74;47.62;101381.31;4372905;32;34548;-83
2023/01/24 10:55:35;;;;;;;1.00;1.00;;;;;;;12.70;49.10;101384.94;4378155;32;33032;-84
2023/01/24 10:58:20;;;;;;;7.85;2.20;;;;;;;12.64;47.64;101383.34;4358925;32;32785;-83
2023/01/24 11:00:55;;;;;;;0.55;0.45;;;;;;;12.83;47.44;101373.09;4379664;32;33169;-84
2023/01/24 11:03:27;;;;;;;0.77;0.77;;;;;;;12.89;46.63;101367.62;4383714;32;33453;-83
2023/01/24 11:05:57;;;;;;;0.77;0.52;;;;;;;12.89;46.89;101357.03;4384333;32;32832;-84
2023/01/24 11:08:31;;;;;;;0.75;0.75;;;;;;;13.18;44.34;101352.66;4369805;32;34486;-83
2023/01/24 11:11:00;;;;;;;0.77;0.77;;;;;;;13.40;43.86;101351.13;4365250;32;33906;-84
2023/01/24 11:13:40;;;;;;;1.62;1.52;;;;;;;13.37;42.50;101345.03;4368536;32;33774;-83
2023/01/24 11:16:17;;;;;;;3.65;0.93;;;;;;;13.19;44.63;101357.03;4355548;32;32842;-83
2023/01/24 11:19:22;;;;;;;0.80;0.65;;;;;;;13.33;43.64;101349.56;4376757;32;34275;-83
2023/01/24 11:21:52;;;;;;;1.50;1.40;;;;;;;13.17;43.90;101348.28;4354710;32;32919;-83
2023/01/24 11:24:21;;;;;;;0.37;0.37;;;;;;;13.42;43.01;101343.97;4371949;32;34051;-83
2023/01/24 11:27:01;;;;;;;1.25;1.15;;;;;;;13.14;44.16;101337.75;4357021;32;32508;-83
2023/01/24 11:29:31;;;;;;;0.93;0.90;;;;;;;13.17;44.87;101335.00;4368641;32;32431;-83
2023/01/24 11:32:28;;;;;;;1.23;1.20;;;;;;;13.64;41.99;101327.41;4368733;32;33197;-83
2023/01/24 11:35:12;;;;;;;2.22;1.70;;;;;;;13.20;43.07;101325.19;4378576;32;34123;-84
2023/01/24 11:37:45;;;;;;;6.43;1.40;;;;;;;12.97;44.52;101322.34;4370818;32;32734;-84
2023/01/24 11:40:23;;;;;;;2.10;1.83;;;;;;;12.93;44.84;101316.25;4379997;32;33790;-84
2023/01/24 11:43:23;;;;;;;2.60;2.20;;;;;;;12.94;46.32;101317.97;4364722;32;33894;-84
2023/01/24 11:46:01;;;;;;;3.05;0.98;;;;;;;13.24;45.49;101318.00;4362116;32;34342;-83
2023/01/24 11:48:46;;;;;;;0.55;0.55;;;;;;;13.42;43.69;101312.13;4373544;32;33547;-84
2023/01/24 11:51:39;;;;;;;0.40;0.40;;;;;;;13.47;45.52;101312.84;4345289;32;32599;-84
2023/01/24 11:54:06;;;;;;;0.75;0.75;;;;;;;12.99;47.01;101313.41;4367607;32;34316;-84
2023/01/24 11:56:55;;;;;;;1.45;1.35;;;;;;;12.87;47.80;101318.22;4370143;32;32737;-83
2023/01/24 11:59:41;;;;;;;2.08;1.98;;;;;;;12.79;48.34;101316.66;4368958;32;34335;-83
2023/01/24 12:02:18;;;;;;;1.48;1.40;;;;;;;12.66;48.69;101312.59;4368924;32;33033;-83
2023/01/24 12:05:29;;;;;;;2.47;2.37;;;;;;;12.64;48.56;101314.44;4374306;32;33450;-83
2023/01/24 12:08:16;;;;;;;1.10;1.08;;;;;;;12.74;48.72;101317.69;4381559;32;33810;-83
2023/01/24 12:10:47;;;;;;;2.58;2.37;;;;;;;12.77;48.48;101312.28;4390230;32;33247;-83
2023/01/24 12:13:24;;;;;;;1.75;1.65;;;;;;;12.86;48.60;101295.25;4386397;32;34583;-83
2023/01/24 12:16:04;;;;;;;1.58;1.12;;;;;;;12.71;49.48;101304.53;4380797;32;33429;-83
2023/01/24 12:18:47;;;;;;;4.22;3.58;;;;;;;12.94;49.44;101303.88;4383258;32;33159;-83
2023/01/24 12:21:15;;;;;;;3.22;2.17;;;;;;;13.08;49.03;101310.50;4383181;32;33820;-83
2023/01/24 12:23:56;;;;;;;2.90;2.45;;;;;;;13.03;49.54;101307.09;4368010;32;34202;-83
2023/01/24 12:26:35;;;;;;;6.57;2.93;;;;;;;13.06;49.88;101303.50;4377966;32;33997;-83
2023/01/24 12:29:16;;;;;;;3.40;2.03;;;;;;;13.12;49.70;101302.44;4389240;32;33742;-84